Bella Bella, Canada
Current Conditions -  °F | °C
As of 8:14 PM on Saturday 20 Dec 2014 (Local Time) from CBBC Reporting Station
Light Rain Light Rain  
Wind Chill: 38°   Ceiling: 2600
Heat Index: 43°   Visibility: 9mi
Dew Point: 41°   Wind: 8mph
Humidity: 93%   Direction: 140°SE
Pressure: 29.27"   Gusts: NA
Location:  52.15°N, 128.13°W
Report Text: CBBC 210414Z AUTO 14007KT 9SM -RA SCT022 OVC026 06/05 A2927 RMK SLP914
Loading
Personal Weather Stations






























Interactive Weather Map New forecast layout! Learn more

10-Day Weather Forecast

Advertisements
Track Severe Weather on mobile